AME4536 LZIB-LOWS
Flight info
| Callsign | AME4536 |
|---|---|
| Flight time | 0h 39m |
| Altitude | 34000 |
| Route | TOVKA DCT MATIG |
| Aircraft | A310/H-SDFGHIM1RTUWXY/LB1 |
Departure
| Time | 2026-05-06 17:39 |
|---|---|
| Airport | M. R. Štefánik Airport (LZIB) |
Arrival
| Time | 2026-05-06 18:18 |
|---|---|
| Airport | Salzburg Airport (LOWS) |
| Time | Latitude | Longitude | Altitude | Speed | Heading |
|---|---|---|---|---|---|
| 2026-05-06 17:25 | 48.17238 | 17.20419 | 437 ft | 0 kts | 80° |
| 2026-05-06 17:35 | 48.17238 | 17.20420 | 437 ft | 0 kts | 80° |
| 2026-05-06 17:35 | 48.17242 | 17.20447 | 434 ft | 7 kts | 80° |
| 2026-05-06 17:35 | 48.17272 | 17.20475 | 426 ft | 5 kts | 332° |
| 2026-05-06 17:36 | 48.17343 | 17.20378 | 422 ft | 8 kts | 316° |
| 2026-05-06 17:36 | 48.17390 | 17.20319 | 433 ft | 9 kts | 332° |
| 2026-05-06 17:36 | 48.17437 | 17.20302 | 429 ft | 0 kts | 356° |
| 2026-05-06 17:36 | 48.17439 | 17.20302 | 429 ft | 2 kts | 356° |
| 2026-05-06 17:37 | 48.17470 | 17.20309 | 431 ft | 7 kts | 17° |
| 2026-05-06 17:37 | 48.17525 | 17.20367 | 423 ft | 11 kts | 49° |
| 2026-05-06 17:37 | 48.17526 | 17.20465 | 421 ft | 10 kts | 133° |
| 2026-05-06 17:37 | 48.17478 | 17.20542 | 431 ft | 10 kts | 134° |
| 2026-05-06 17:38 | 48.17429 | 17.20617 | 431 ft | 10 kts | 134° |
| 2026-05-06 17:38 | 48.17376 | 17.20697 | 422 ft | 14 kts | 134° |
| 2026-05-06 17:38 | 48.17263 | 17.20872 | 427 ft | 40 kts | 134° |
| 2026-05-06 17:38 | 48.16907 | 17.21416 | 430 ft | 105 kts | 135° |
| 2026-05-06 17:39 | 48.16263 | 17.22393 | 455 ft | 157 kts | 135° |
| 2026-05-06 17:39 | 48.15525 | 17.23649 | 1050 ft | 160 kts | 138° |
| 2026-05-06 17:39 | 48.14767 | 17.24817 | 1878 ft | 156 kts | 146° |
| 2026-05-06 17:39 | 48.13989 | 17.25974 | 2613 ft | 158 kts | 145° |
| 2026-05-06 17:40 | 48.13291 | 17.27254 | 3335 ft | 170 kts | 120° |
| 2026-05-06 17:40 | 48.13171 | 17.29152 | 3835 ft | 202 kts | 93° |
| 2026-05-06 17:40 | 48.13674 | 17.31245 | 4319 ft | 230 kts | 57° |
| 2026-05-06 17:40 | 48.14930 | 17.32817 | 4936 ft | 243 kts | 17° |
| 2026-05-06 17:41 | 48.16582 | 17.32948 | 5613 ft | 240 kts | 335° |
| 2026-05-06 17:41 | 48.17871 | 17.31575 | 6374 ft | 225 kts | 294° |
| 2026-05-06 17:41 | 48.18392 | 17.29429 | 7172 ft | 223 kts | 277° |
| 2026-05-06 17:41 | 48.18774 | 17.27120 | 7997 ft | 235 kts | 278° |
| 2026-05-06 17:42 | 48.19231 | 17.24672 | 8679 ft | 257 kts | 281° |
| 2026-05-06 17:42 | 48.19781 | 17.22050 | 9067 ft | 270 kts | 283° |
| 2026-05-06 17:42 | 48.20394 | 17.19373 | 9333 ft | 275 kts | 284° |
| 2026-05-06 17:42 | 48.21040 | 17.16667 | 9567 ft | 278 kts | 285° |
| 2026-05-06 17:43 | 48.21713 | 17.13944 | 9820 ft | 280 kts | 285° |
| 2026-05-06 17:43 | 48.22389 | 17.11197 | 10057 ft | 283 kts | 285° |
| 2026-05-06 17:43 | 48.23072 | 17.08429 | 10299 ft | 284 kts | 285° |
| 2026-05-06 17:43 | 48.23754 | 17.05654 | 10541 ft | 285 kts | 285° |
| 2026-05-06 17:44 | 48.24483 | 17.02758 | 10777 ft | 312 kts | 286° |
| 2026-05-06 17:44 | 48.25281 | 16.99575 | 11064 ft | 340 kts | 286° |
| 2026-05-06 17:44 | 48.26131 | 16.96138 | 11478 ft | 361 kts | 286° |
| 2026-05-06 17:44 | 48.26976 | 16.92538 | 12178 ft | 370 kts | 281° |
| 2026-05-06 17:45 | 48.27136 | 16.88709 | 12914 ft | 371 kts | 263° |
| 2026-05-06 17:45 | 48.26846 | 16.84847 | 13710 ft | 376 kts | 259° |
| 2026-05-06 17:45 | 48.26527 | 16.80933 | 14451 ft | 381 kts | 260° |
| 2026-05-06 17:45 | 48.26265 | 16.76959 | 15235 ft | 386 kts | 262° |
| 2026-05-06 17:46 | 48.26042 | 16.72939 | 16043 ft | 389 kts | 262° |
| 2026-05-06 17:46 | 48.25850 | 16.68876 | 16841 ft | 393 kts | 263° |
| 2026-05-06 17:46 | 48.25655 | 16.64773 | 17626 ft | 396 kts | 263° |
| 2026-05-06 17:46 | 48.25451 | 16.60643 | 18362 ft | 399 kts | 263° |
| 2026-05-06 17:47 | 48.25243 | 16.56484 | 19045 ft | 402 kts | 262° |
| 2026-05-06 17:47 | 48.25035 | 16.52296 | 19717 ft | 405 kts | 263° |
| 2026-05-06 17:47 | 48.24816 | 16.48078 | 20373 ft | 408 kts | 263° |
| 2026-05-06 17:47 | 48.24595 | 16.43821 | 21046 ft | 411 kts | 263° |
| 2026-05-06 17:48 | 48.24372 | 16.39536 | 21712 ft | 415 kts | 262° |
| 2026-05-06 17:48 | 48.24143 | 16.35220 | 22377 ft | 418 kts | 263° |
| 2026-05-06 17:48 | 48.23915 | 16.30865 | 23039 ft | 421 kts | 262° |
| 2026-05-06 17:48 | 48.23684 | 16.26476 | 23621 ft | 425 kts | 262° |
| 2026-05-06 17:49 | 48.23447 | 16.22050 | 24184 ft | 427 kts | 262° |
| 2026-05-06 17:49 | 48.23209 | 16.17606 | 24755 ft | 430 kts | 262° |
| 2026-05-06 17:49 | 48.22967 | 16.13137 | 25324 ft | 432 kts | 262° |
| 2026-05-06 17:49 | 48.22721 | 16.08640 | 25865 ft | 435 kts | 262° |
| 2026-05-06 17:50 | 48.22472 | 16.04117 | 26427 ft | 437 kts | 262° |
| 2026-05-06 17:50 | 48.22229 | 15.99579 | 27036 ft | 438 kts | 262° |
| 2026-05-06 17:50 | 48.21977 | 15.95021 | 27702 ft | 437 kts | 262° |
| 2026-05-06 17:50 | 48.21726 | 15.90503 | 28515 ft | 434 kts | 262° |
| 2026-05-06 17:51 | 48.21485 | 15.86000 | 29163 ft | 436 kts | 262° |
| 2026-05-06 17:51 | 48.21248 | 15.81527 | 29509 ft | 425 kts | 262° |
| 2026-05-06 17:51 | 48.21003 | 15.77156 | 29648 ft | 418 kts | 261° |
| 2026-05-06 17:51 | 48.20742 | 15.72837 | 29690 ft | 414 kts | 261° |
| 2026-05-06 17:52 | 48.20235 | 15.64326 | 29734 ft | 410 kts | 261° |
| 2026-05-06 17:52 | 48.19733 | 15.55842 | 29721 ft | 409 kts | 261° |
| 2026-05-06 17:53 | 48.19303 | 15.47340 | 29715 ft | 409 kts | 261° |
| 2026-05-06 17:53 | 48.18735 | 15.38877 | 29730 ft | 410 kts | 261° |
| 2026-05-06 17:54 | 48.18222 | 15.30393 | 29701 ft | 410 kts | 260° |
| 2026-05-06 17:54 | 48.17692 | 15.21902 | 29591 ft | 410 kts | 260° |
| 2026-05-06 17:55 | 48.17421 | 15.17665 | 29296 ft | 409 kts | 261° |
| 2026-05-06 17:55 | 48.17150 | 15.13439 | 28968 ft | 408 kts | 261° |
| 2026-05-06 17:55 | 48.16886 | 15.09221 | 28544 ft | 407 kts | 261° |
| 2026-05-06 17:55 | 48.16612 | 15.05028 | 28127 ft | 404 kts | 260° |
| 2026-05-06 17:56 | 48.16350 | 15.00845 | 27675 ft | 403 kts | 260° |
| 2026-05-06 17:56 | 48.16072 | 14.96690 | 27205 ft | 400 kts | 260° |
| 2026-05-06 17:56 | 48.15810 | 14.92559 | 26736 ft | 398 kts | 260° |
| 2026-05-06 17:56 | 48.15541 | 14.88454 | 26273 ft | 396 kts | 260° |
| 2026-05-06 17:57 | 48.15271 | 14.84379 | 25889 ft | 393 kts | 260° |
| 2026-05-06 17:57 | 48.14999 | 14.80326 | 25517 ft | 391 kts | 260° |
| 2026-05-06 17:57 | 48.14733 | 14.76283 | 25149 ft | 390 kts | 260° |
| 2026-05-06 17:57 | 48.14462 | 14.72267 | 24779 ft | 388 kts | 260° |
| 2026-05-06 17:58 | 48.14194 | 14.68271 | 24421 ft | 386 kts | 260° |
| 2026-05-06 17:58 | 48.13919 | 14.64290 | 24074 ft | 384 kts | 260° |
| 2026-05-06 17:58 | 48.13655 | 14.60326 | 23717 ft | 383 kts | 260° |
| 2026-05-06 17:58 | 48.13377 | 14.56375 | 23368 ft | 381 kts | 260° |
| 2026-05-06 17:59 | 48.13110 | 14.52442 | 23005 ft | 380 kts | 260° |
| 2026-05-06 17:59 | 48.12838 | 14.48528 | 22593 ft | 378 kts | 260° |
| 2026-05-06 17:59 | 48.12569 | 14.44632 | 22190 ft | 376 kts | 260° |
| 2026-05-06 17:59 | 48.12300 | 14.40758 | 21797 ft | 374 kts | 260° |
| 2026-05-06 18:00 | 48.12029 | 14.36909 | 21409 ft | 372 kts | 260° |
| 2026-05-06 18:00 | 48.11754 | 14.33077 | 21028 ft | 369 kts | 260° |
| 2026-05-06 18:00 | 48.11490 | 14.29275 | 20645 ft | 367 kts | 260° |
| 2026-05-06 18:00 | 48.11220 | 14.25498 | 20269 ft | 365 kts | 260° |
| 2026-05-06 18:01 | 48.10958 | 14.21743 | 19900 ft | 363 kts | 260° |
| 2026-05-06 18:01 | 48.10691 | 14.18012 | 19530 ft | 360 kts | 260° |
| 2026-05-06 18:01 | 48.10428 | 14.14296 | 19173 ft | 358 kts | 260° |
| 2026-05-06 18:01 | 48.10163 | 14.10609 | 18814 ft | 356 kts | 259° |
| 2026-05-06 18:02 | 48.09895 | 14.06946 | 18456 ft | 354 kts | 259° |
| 2026-05-06 18:02 | 48.09625 | 14.03306 | 18103 ft | 352 kts | 259° |
| 2026-05-06 18:02 | 48.09369 | 13.99687 | 17719 ft | 350 kts | 260° |
| 2026-05-06 18:02 | 48.09112 | 13.96087 | 17328 ft | 348 kts | 260° |
| 2026-05-06 18:03 | 48.08863 | 13.92496 | 16923 ft | 346 kts | 261° |
| 2026-05-06 18:03 | 48.08611 | 13.88932 | 16539 ft | 345 kts | 261° |
| 2026-05-06 18:03 | 48.08356 | 13.85388 | 16155 ft | 343 kts | 261° |
| 2026-05-06 18:03 | 48.08099 | 13.81862 | 15780 ft | 341 kts | 261° |
| 2026-05-06 18:04 | 48.07837 | 13.78354 | 15400 ft | 339 kts | 261° |
| 2026-05-06 18:04 | 48.07569 | 13.74867 | 15028 ft | 338 kts | 261° |
| 2026-05-06 18:04 | 48.07296 | 13.71391 | 14665 ft | 336 kts | 261° |
| 2026-05-06 18:04 | 48.07021 | 13.67965 | 14245 ft | 329 kts | 261° |
| 2026-05-06 18:05 | 48.06759 | 13.64621 | 13755 ft | 321 kts | 261° |
| 2026-05-06 18:05 | 48.06523 | 13.61346 | 13261 ft | 314 kts | 261° |
| 2026-05-06 18:05 | 48.06278 | 13.58147 | 12745 ft | 307 kts | 261° |
| 2026-05-06 18:05 | 48.06032 | 13.55026 | 12324 ft | 298 kts | 261° |
| 2026-05-06 18:06 | 48.05752 | 13.52008 | 11946 ft | 290 kts | 259° |
| 2026-05-06 18:06 | 48.05472 | 13.49077 | 11622 ft | 281 kts | 260° |
| 2026-05-06 18:06 | 48.05225 | 13.46224 | 11199 ft | 276 kts | 261° |
| 2026-05-06 18:06 | 48.04984 | 13.43391 | 10706 ft | 274 kts | 261° |
| 2026-05-06 18:07 | 48.04743 | 13.40575 | 10214 ft | 274 kts | 261° |
| 2026-05-06 18:07 | 48.04496 | 13.37769 | 9709 ft | 273 kts | 261° |
| 2026-05-06 18:07 | 48.04249 | 13.34967 | 9202 ft | 272 kts | 261° |
| 2026-05-06 18:07 | 48.04002 | 13.32173 | 8682 ft | 271 kts | 261° |
| 2026-05-06 18:08 | 48.03763 | 13.29389 | 8180 ft | 270 kts | 261° |
| 2026-05-06 18:08 | 48.03531 | 13.26613 | 7708 ft | 269 kts | 261° |
| 2026-05-06 18:08 | 48.03294 | 13.23874 | 7340 ft | 264 kts | 261° |
| 2026-05-06 18:08 | 48.03067 | 13.21186 | 6979 ft | 259 kts | 261° |
| 2026-05-06 18:09 | 48.02840 | 13.18538 | 6621 ft | 255 kts | 261° |
| 2026-05-06 18:09 | 48.02624 | 13.15929 | 6269 ft | 252 kts | 261° |
| 2026-05-06 18:09 | 48.02403 | 13.13355 | 5918 ft | 249 kts | 261° |
| 2026-05-06 18:09 | 48.01879 | 13.10965 | 5601 ft | 241 kts | 240° |
| 2026-05-06 18:10 | 48.01035 | 13.08833 | 5284 ft | 237 kts | 238° |
| 2026-05-06 18:10 | 48.00183 | 13.06779 | 5082 ft | 228 kts | 237° |
| 2026-05-06 18:10 | 47.99364 | 13.04814 | 4983 ft | 220 kts | 237° |
| 2026-05-06 18:10 | 47.98563 | 13.02898 | 4944 ft | 216 kts | 235° |
| 2026-05-06 18:11 | 47.97407 | 13.01579 | 4955 ft | 212 kts | 194° |
| 2026-05-06 18:11 | 47.96451 | 13.01526 | 4962 ft | 204 kts | 172° |
| 2026-05-06 18:11 | 47.94685 | 13.02127 | 4964 ft | 192 kts | 168° |
| 2026-05-06 18:11 | 47.93391 | 13.02595 | 4963 ft | 186 kts | 169° |
| 2026-05-06 18:12 | 47.92197 | 13.02999 | 4908 ft | 170 kts | 169° |
| 2026-05-06 18:12 | 47.91025 | 13.03394 | 4651 ft | 170 kts | 168° |
| 2026-05-06 18:12 | 47.89893 | 13.03806 | 4670 ft | 163 kts | 168° |
| 2026-05-06 18:12 | 47.88872 | 13.04176 | 4745 ft | 141 kts | 170° |
| 2026-05-06 18:13 | 47.87945 | 13.04450 | 4503 ft | 132 kts | 173° |
| 2026-05-06 18:13 | 47.87026 | 13.04638 | 4207 ft | 135 kts | 175° |
| 2026-05-06 18:13 | 47.86083 | 13.04786 | 3881 ft | 137 kts | 178° |
| 2026-05-06 18:13 | 47.85173 | 13.04874 | 3742 ft | 127 kts | 176° |
| 2026-05-06 18:14 | 47.84280 | 13.05101 | 3530 ft | 134 kts | 168° |
| 2026-05-06 18:14 | 47.83396 | 13.05502 | 3427 ft | 131 kts | 161° |
| 2026-05-06 18:14 | 47.82576 | 13.06025 | 3366 ft | 127 kts | 162° |
| 2026-05-06 18:14 | 47.81736 | 13.06423 | 3198 ft | 126 kts | 169° |
| 2026-05-06 18:15 | 47.80867 | 13.06745 | 2758 ft | 141 kts | 169° |
| 2026-05-06 18:15 | 47.79882 | 13.07102 | 2622 ft | 143 kts | 173° |
| 2026-05-06 18:15 | 47.78913 | 13.07393 | 2497 ft | 145 kts | 176° |
| 2026-05-06 18:15 | 47.77942 | 13.07248 | 2501 ft | 136 kts | 218° |
| 2026-05-06 18:16 | 47.77415 | 13.06242 | 2299 ft | 125 kts | 258° |
| 2026-05-06 18:16 | 47.77209 | 13.04975 | 2085 ft | 128 kts | 259° |
| 2026-05-06 18:16 | 47.76972 | 13.03722 | 2013 ft | 127 kts | 261° |
| 2026-05-06 18:16 | 47.77018 | 13.02435 | 1902 ft | 128 kts | 294° |
| 2026-05-06 18:17 | 47.77597 | 13.01519 | 1672 ft | 125 kts | 336° |
| 2026-05-06 18:17 | 47.78389 | 13.00986 | 1456 ft | 121 kts | 337° |
| 2026-05-06 18:17 | 47.79087 | 13.00548 | 1424 ft | 95 kts | 336° |
| 2026-05-06 18:17 | 47.79559 | 13.00253 | 1428 ft | 62 kts | 337° |
| 2026-05-06 18:18 | 47.79928 | 13.00022 | 1426 ft | 54 kts | 337° |
| 2026-05-06 18:18 | 47.80190 | 12.99857 | 1426 ft | 24 kts | 337° |
| 2026-05-06 18:18 | 47.80272 | 12.99690 | 1427 ft | 21 kts | 259° |
| 2026-05-06 18:18 | 47.80174 | 12.99600 | 1426 ft | 18 kts | 163° |
| 2026-05-06 18:19 | 47.80059 | 12.99670 | 1426 ft | 18 kts | 157° |
| 2026-05-06 18:19 | 47.79945 | 12.99742 | 1426 ft | 18 kts | 156° |
| 2026-05-06 18:19 | 47.79829 | 12.99817 | 1426 ft | 18 kts | 157° |
| 2026-05-06 18:19 | 47.79709 | 12.99892 | 1426 ft | 19 kts | 157° |
| 2026-05-06 18:20 | 47.79588 | 12.99968 | 1426 ft | 19 kts | 157° |
| 2026-05-06 18:20 | 47.79466 | 13.00044 | 1426 ft | 19 kts | 157° |
| 2026-05-06 18:20 | 47.79363 | 13.00066 | 1426 ft | 14 kts | 217° |
| 2026-05-06 18:20 | 47.79322 | 12.99946 | 1426 ft | 13 kts | 249° |
| 2026-05-06 18:21 | 47.79325 | 12.99826 | 1426 ft | 11 kts | 254° |
| 2026-05-06 18:21 | 47.79317 | 12.99798 | 1426 ft | 0 kts | 248° |